createdAt,value
2023-04-29T00:03:45.576Z,10.91
2023-04-29T00:09:06.723Z,10.94
2023-04-29T00:14:27.286Z,10.94
2023-04-29T00:19:48.205Z,11.02
2023-04-29T00:25:09.330Z,11.03
2023-04-29T00:30:32.148Z,10.96
2023-04-29T00:35:53.135Z,10.92
2023-04-29T00:41:13.835Z,10.92
2023-04-29T00:46:35.009Z,10.94
2023-04-29T00:51:57.944Z,10.99
2023-04-29T00:57:20.188Z,10.94
2023-04-29T01:02:42.355Z,10.90
2023-04-29T01:08:09.282Z,10.86
2023-04-29T01:13:37.758Z,10.91
2023-04-29T01:19:07.413Z,10.90
2023-04-29T01:24:29.287Z,10.96
2023-04-29T01:30:02.447Z,11.04
2023-04-29T01:35:37.203Z,11.07
2023-04-29T01:41:17.256Z,11.07
2023-04-29T01:46:43.178Z,11.14
2023-04-29T01:52:04.343Z,11.23
2023-04-29T01:57:26.323Z,11.19
2023-04-29T02:02:53.349Z,11.26
2023-04-29T02:08:23.045Z,11.26
2023-04-29T02:13:44.078Z,11.26
2023-04-29T02:19:06.917Z,11.19
2023-04-29T02:24:27.669Z,11.19
2023-04-29T02:29:48.562Z,11.16
2023-04-29T02:35:09.633Z,11.20
2023-04-29T02:40:30.134Z,11.11
2023-04-29T02:45:52.506Z,11.15
2023-04-29T02:51:13.490Z,10.94
2023-04-29T02:56:34.705Z,10.93
2023-04-29T03:01:55.460Z,10.95
2023-04-29T03:07:17.494Z,11.01
2023-04-29T03:12:39.539Z,10.94
2023-04-29T03:18:01.924Z,10.83
2023-04-29T03:23:23.136Z,10.89
2023-04-29T03:28:43.790Z,11.07
2023-04-29T03:34:04.480Z,11.27
2023-04-29T03:39:32.627Z,11.38
2023-04-29T03:44:53.440Z,11.40
2023-04-29T03:50:14.085Z,11.43
2023-04-29T03:55:35.625Z,11.43
2023-04-29T04:00:56.467Z,11.55
2023-04-29T04:06:24.740Z,11.59
2023-04-29T04:11:47.116Z,11.52
2023-04-29T04:17:08.700Z,11.62
2023-04-29T04:22:30.404Z,11.70
2023-04-29T04:28:07.468Z,11.63
2023-04-29T04:33:49.014Z,11.57
2023-04-29T04:39:10.078Z,11.47
2023-04-29T04:44:31.571Z,11.23
2023-04-29T04:49:58.768Z,11.27
2023-04-29T04:55:20.592Z,11.38
2023-04-29T05:00:45.919Z,11.25
2023-04-29T05:06:06.604Z,11.24
2023-04-29T05:11:27.834Z,11.29
2023-04-29T05:17:05.508Z,11.39
2023-04-29T05:22:26.879Z,11.33
2023-04-29T05:27:47.844Z,11.39
2023-04-29T05:33:12.285Z,11.56
2023-04-29T05:38:33.885Z,11.57
2023-04-29T05:43:57.751Z,11.67
2023-04-29T05:49:18.470Z,11.63
2023-04-29T05:54:39.294Z,11.68
2023-04-29T06:00:01.154Z,11.70
2023-04-29T06:05:22.322Z,11.66
2023-04-29T06:11:02.986Z,11.73
2023-04-29T06:16:23.718Z,12.00
2023-04-29T06:21:44.708Z,12.00
2023-04-29T06:27:05.793Z,12.24
2023-04-29T06:32:26.916Z,12.47
2023-04-29T06:37:47.904Z,12.53
2023-04-29T06:43:28.023Z,12.52
2023-04-29T06:49:14.706Z,12.71
2023-04-29T06:54:35.722Z,12.67
2023-04-29T06:59:56.618Z,12.76
2023-04-29T07:05:19.678Z,13.32
2023-04-29T07:10:41.766Z,13.77
2023-04-29T07:16:02.462Z,14.32
2023-04-29T07:21:23.223Z,14.52
2023-04-29T07:26:47.820Z,14.37
2023-04-29T07:32:10.080Z,14.12
2023-04-29T07:37:31.902Z,14.40
2023-04-29T07:42:52.609Z,14.76
2023-04-29T07:48:13.551Z,15.04
2023-04-29T07:53:34.814Z,15.29
2023-04-29T07:58:55.799Z,15.44
2023-04-29T08:04:16.617Z,15.23
2023-04-29T08:09:43.151Z,15.16
2023-04-29T08:15:06.758Z,15.24
2023-04-29T08:20:29.050Z,14.94
2023-04-29T08:25:52.256Z,14.86
2023-04-29T08:31:22.436Z,14.51
2023-04-29T08:36:43.356Z,14.30
2023-04-29T08:42:14.184Z,14.47
2023-04-29T08:47:37.184Z,14.89
2023-04-29T08:52:57.943Z,15.15
2023-04-29T08:58:19.005Z,15.39
2023-04-29T09:04:02.066Z,15.51
2023-04-29T09:09:24.870Z,15.73
2023-04-29T09:14:45.539Z,15.63
2023-04-29T09:20:30.125Z,15.41
2023-04-29T09:25:57.700Z,15.31
2023-04-29T09:31:28.382Z,15.29
2023-04-29T09:36:57.035Z,14.97
2023-04-29T09:42:17.895Z,14.42
2023-04-29T09:47:38.497Z,14.31
2023-04-29T09:53:00.257Z,14.64
2023-04-29T09:58:40.296Z,15.04
2023-04-29T10:04:02.104Z,15.43
2023-04-29T10:09:24.133Z,15.42
2023-04-29T10:14:57.931Z,15.57
2023-04-29T10:20:25.963Z,15.46
2023-04-29T10:25:48.666Z,15.16
2023-04-29T10:31:10.488Z,14.72
2023-04-29T10:36:32.384Z,14.14
2023-04-29T10:41:54.364Z,13.89
2023-04-29T10:47:21.571Z,13.86
2023-04-29T10:52:52.471Z,13.91
2023-04-29T10:58:43.451Z,14.09
2023-04-29T11:04:05.117Z,14.24
2023-04-29T11:09:28.107Z,14.41
2023-04-29T11:14:52.353Z,14.63
2023-04-29T11:20:16.031Z,14.67
2023-04-29T11:25:38.807Z,14.68
2023-04-29T11:31:00.554Z,14.49
2023-04-29T11:36:21.464Z,14.30
2023-04-29T11:41:43.069Z,14.22
2023-04-29T11:47:07.253Z,14.05
2023-04-29T11:52:28.866Z,13.90
2023-04-29T11:57:51.510Z,13.91
2023-04-29T12:03:16.674Z,14.09
2023-04-29T12:08:37.424Z,14.23
2023-04-29T12:13:58.724Z,14.35
2023-04-29T12:19:19.800Z,14.51
2023-04-29T12:24:41.779Z,14.67
2023-04-29T12:30:07.085Z,14.86
2023-04-29T12:35:28.087Z,15.01
2023-04-29T12:40:49.183Z,15.03
2023-04-29T12:46:12.875Z,14.83
2023-04-29T12:51:34.968Z,14.63
2023-04-29T12:56:55.811Z,14.29
2023-04-29T13:02:16.509Z,13.89
2023-04-29T13:07:39.102Z,13.79
2023-04-29T13:12:59.988Z,13.86
2023-04-29T13:18:21.502Z,13.91
2023-04-29T13:23:42.302Z,13.91
2023-04-29T13:29:03.183Z,13.87
2023-04-29T13:34:24.321Z,13.72
2023-04-29T13:39:47.274Z,13.79
2023-04-29T13:45:08.940Z,13.76
2023-04-29T13:50:57.322Z,13.65
2023-04-29T14:06:58.468Z,13.52
2023-04-29T14:12:19.279Z,13.49
2023-04-29T14:17:40.029Z,13.61
2023-04-29T14:23:00.936Z,13.71
2023-04-29T14:28:21.945Z,13.81
2023-04-29T14:33:42.540Z,13.69
2023-04-29T14:39:04.384Z,13.85
2023-04-29T14:44:24.895Z,13.83
2023-04-29T14:49:46.025Z,13.80
2023-04-29T14:55:07.936Z,13.82
2023-04-29T15:00:28.681Z,13.89
2023-04-29T15:05:50.740Z,13.92
2023-04-29T15:11:11.716Z,13.92
2023-04-29T15:16:32.650Z,13.83
2023-04-29T15:21:53.451Z,13.80
2023-04-29T15:27:16.261Z,13.63
2023-04-29T15:32:37.070Z,13.35
2023-04-29T15:37:59.343Z,13.23
2023-04-29T15:43:20.694Z,13.25
2023-04-29T15:48:42.908Z,13.18
2023-04-29T15:54:05.202Z,13.24
2023-04-29T15:59:25.858Z,13.18
2023-04-29T16:04:46.824Z,13.08
2023-04-29T16:10:07.542Z,13.06
2023-04-29T16:15:29.504Z,13.03
2023-04-29T16:20:52.176Z,12.96
2023-04-29T16:26:13.024Z,12.84
2023-04-29T16:31:33.974Z,12.79
2023-04-29T16:36:54.583Z,12.71
2023-04-29T16:42:15.651Z,12.63
2023-04-29T16:47:37.756Z,12.61
2023-04-29T16:52:58.382Z,12.61
2023-04-29T16:58:19.432Z,12.68
2023-04-29T17:03:40.636Z,12.58
2023-04-29T17:09:02.489Z,12.54
2023-04-29T17:14:23.222Z,12.48
2023-04-29T17:19:44.246Z,12.44
2023-04-29T17:25:05.855Z,12.37
2023-04-29T17:30:26.706Z,12.26
2023-04-29T17:35:47.522Z,12.14
2023-04-29T17:41:08.161Z,12.11
2023-04-29T17:46:29.178Z,11.92
2023-04-29T17:51:50.231Z,11.69
2023-04-29T17:57:10.888Z,11.46
2023-04-29T18:02:31.661Z,11.38
2023-04-29T18:07:52.353Z,11.26
2023-04-29T18:13:13.027Z,11.17
2023-04-29T18:18:33.871Z,11.09
2023-04-29T18:23:55.800Z,11.04
2023-04-29T18:29:17.081Z,11.02
2023-04-29T18:34:37.815Z,11.05
2023-04-29T18:39:58.663Z,11.07
2023-04-29T18:45:19.410Z,11.11
2023-04-29T18:50:40.404Z,11.15
2023-04-29T18:56:01.435Z,11.05
2023-04-29T19:01:22.254Z,11.02
2023-04-29T19:06:43.262Z,11.04
2023-04-29T19:12:04.952Z,11.00
2023-04-29T19:17:26.051Z,10.87
2023-04-29T19:22:47.194Z,10.78
2023-04-29T19:28:07.993Z,10.77
2023-04-29T19:33:28.836Z,10.70
2023-04-29T19:38:49.934Z,10.59
2023-04-29T19:44:11.051Z,10.56
2023-04-29T19:49:32.012Z,10.56
2023-04-29T19:54:52.909Z,10.55
2023-04-29T20:00:14.669Z,10.54
2023-04-29T20:05:35.529Z,10.59
2023-04-29T20:10:56.210Z,10.54
2023-04-29T20:16:17.154Z,10.56
2023-04-29T20:21:39.783Z,10.57
2023-04-29T20:27:01.621Z,10.55
2023-04-29T20:32:22.702Z,10.54
2023-04-29T20:37:43.278Z,10.47
2023-04-29T20:43:04.717Z,10.42
2023-04-29T20:48:25.956Z,10.55
2023-04-29T20:53:47.009Z,10.54
2023-04-29T20:59:07.740Z,10.54
2023-04-29T21:04:28.656Z,10.60
2023-04-29T21:09:50.250Z,10.58
2023-04-29T21:15:11.404Z,10.49
2023-04-29T21:20:32.235Z,10.43
2023-04-29T21:25:52.893Z,10.52
2023-04-29T21:31:16.436Z,10.49
2023-04-29T21:36:37.332Z,10.52
2023-04-29T21:42:00.185Z,10.59
2023-04-29T21:47:21.046Z,10.47
2023-04-29T21:52:41.996Z,10.40
2023-04-29T21:58:02.912Z,10.41
2023-04-29T22:03:24.100Z,10.35
2023-04-29T22:08:44.576Z,10.28
2023-04-29T22:14:05.674Z,10.18
2023-04-29T22:19:30.121Z,10.17
2023-04-29T22:24:50.974Z,10.25
2023-04-29T22:30:12.138Z,10.32
2023-04-29T22:35:32.759Z,10.37
2023-04-29T22:40:53.682Z,10.38
2023-04-29T22:46:14.621Z,10.47
2023-04-29T22:51:35.243Z,10.49
2023-04-29T22:56:56.042Z,10.35
2023-04-29T23:02:16.706Z,10.33
2023-04-29T23:07:37.534Z,10.37
2023-04-29T23:12:58.183Z,10.42
2023-04-29T23:18:18.852Z,10.37
2023-04-29T23:23:39.669Z,10.45
2023-04-29T23:29:00.628Z,10.40
2023-04-29T23:34:21.575Z,10.40
2023-04-29T23:39:42.342Z,10.40
2023-04-29T23:45:03.141Z,10.37
2023-04-29T23:50:24.138Z,10.34
2023-04-29T23:55:44.944Z,10.37
